sensor_id;sensor_type;location;lat;lon;timestamp;pressure;altitude;pressure_sealevel;temperature;humidity
8366;BME280;4220;42.502;24.188;2023-06-24T00:02:03;95358.34;;;22.21;100.00
8366;BME280;4220;42.502;24.188;2023-06-24T00:04:31;95364.47;;;22.03;100.00
8366;BME280;4220;42.502;24.188;2023-06-24T00:06:59;95354.47;;;22.03;100.00
8366;BME280;4220;42.502;24.188;2023-06-24T00:09:26;95347.00;;;21.95;100.00
8366;BME280;4220;42.502;24.188;2023-06-24T00:11:53;95338.19;;;21.80;100.00
8366;BME280;4220;42.502;24.188;2023-06-24T00:14:21;95336.59;;;21.79;100.00
8366;BME280;4220;42.502;24.188;2023-06-24T00:16:49;95344.28;;;21.95;100.00
8366;BME280;4220;42.502;24.188;2023-06-24T00:19:19;95334.50;;;21.99;100.00
8366;BME280;4220;42.502;24.188;2023-06-24T00:21:48;95346.06;;;22.05;100.00
8366;BME280;4220;42.502;24.188;2023-06-24T00:24:17;95337.66;;;22.06;100.00
8366;BME280;4220;42.502;24.188;2023-06-24T00:26:45;95346.31;;;22.08;100.00
8366;BME280;4220;42.502;24.188;2023-06-24T00:29:12;95348.88;;;21.95;100.00
8366;BME280;4220;42.502;24.188;2023-06-24T00:31:40;95346.28;;;21.80;100.00
8366;BME280;4220;42.502;24.188;2023-06-24T00:34:07;95321.56;;;21.68;100.00
8366;BME280;4220;42.502;24.188;2023-06-24T00:36:34;95342.19;;;21.87;100.00
8366;BME280;4220;42.502;24.188;2023-06-24T00:39:03;95345.22;;;21.81;100.00
8366;BME280;4220;42.502;24.188;2023-06-24T00:41:30;95333.94;;;21.74;100.00
8366;BME280;4220;42.502;24.188;2023-06-24T00:43:58;95344.84;;;21.64;100.00
8366;BME280;4220;42.502;24.188;2023-06-24T00:46:25;95347.72;;;21.72;100.00
8366;BME280;4220;42.502;24.188;2023-06-24T00:48:52;95344.13;;;21.82;100.00
8366;BME280;4220;42.502;24.188;2023-06-24T00:51:19;95342.28;;;21.77;100.00
8366;BME280;4220;42.502;24.188;2023-06-24T00:53:46;95345.25;;;21.76;100.00
8366;BME280;4220;42.502;24.188;2023-06-24T00:56:17;95344.91;;;21.25;100.00
8366;BME280;4220;42.502;24.188;2023-06-24T00:58:44;95335.03;;;21.10;100.00
8366;BME280;4220;42.502;24.188;2023-06-24T01:01:12;95335.84;;;21.06;100.00
8366;BME280;4220;42.502;24.188;2023-06-24T01:03:40;95334.72;;;20.73;100.00
8366;BME280;4220;42.502;24.188;2023-06-24T01:06:08;95340.72;;;20.55;100.00
8366;BME280;4220;42.502;24.188;2023-06-24T01:08:35;95343.13;;;20.61;100.00
8366;BME280;4220;42.502;24.188;2023-06-24T01:11:02;95323.44;;;20.66;100.00
8366;BME280;4220;42.502;24.188;2023-06-24T01:13:31;95346.25;;;20.83;100.00
8366;BME280;4220;42.502;24.188;2023-06-24T01:16:00;95342.66;;;20.98;100.00
8366;BME280;4220;42.502;24.188;2023-06-24T01:18:32;95345.97;;;21.24;100.00
8366;BME280;4220;42.502;24.188;2023-06-24T01:21:06;95352.28;;;21.43;100.00
8366;BME280;4220;42.502;24.188;2023-06-24T01:24:01;95297.72;;;21.22;100.00
8366;BME280;4220;42.502;24.188;2023-06-24T01:26:47;95345.34;;;21.66;100.00
8366;BME280;4220;42.502;24.188;2023-06-24T01:29:37;95341.63;;;21.62;100.00
8366;BME280;4220;42.502;24.188;2023-06-24T01:32:16;95350.25;;;21.64;100.00
8366;BME280;4220;42.502;24.188;2023-06-24T01:34:52;95351.84;;;21.65;100.00
8366;BME280;4220;42.502;24.188;2023-06-24T01:37:24;95342.66;;;21.66;100.00
8366;BME280;4220;42.502;24.188;2023-06-24T01:39:56;95348.53;;;21.73;100.00
8366;BME280;4220;42.502;24.188;2023-06-24T01:42:25;95354.53;;;21.65;100.00
8366;BME280;4220;42.502;24.188;2023-06-24T01:44:53;95350.06;;;21.50;100.00
8366;BME280;4220;42.502;24.188;2023-06-24T01:47:25;95341.84;;;21.36;100.00
8366;BME280;4220;42.502;24.188;2023-06-24T01:49:54;95346.63;;;21.44;100.00
8366;BME280;4220;42.502;24.188;2023-06-24T01:52:23;95353.44;;;21.37;100.00
8366;BME280;4220;42.502;24.188;2023-06-24T01:54:54;95351.00;;;21.35;100.00
8366;BME280;4220;42.502;24.188;2023-06-24T01:57:22;95342.91;;;21.35;100.00
8366;BME280;4220;42.502;24.188;2023-06-24T01:59:52;95352.63;;;21.36;100.00
8366;BME280;4220;42.502;24.188;2023-06-24T02:02:22;95360.72;;;21.36;100.00
8366;BME280;4220;42.502;24.188;2023-06-24T02:04:52;95372.00;;;21.43;100.00
8366;BME280;4220;42.502;24.188;2023-06-24T02:07:20;95370.16;;;21.39;100.00
8366;BME280;4220;42.502;24.188;2023-06-24T02:09:48;95375.28;;;21.35;100.00
8366;BME280;4220;42.502;24.188;2023-06-24T02:12:16;95373.78;;;21.24;100.00
8366;BME280;4220;42.502;24.188;2023-06-24T02:14:44;95369.97;;;21.25;100.00
8366;BME280;4220;42.502;24.188;2023-06-24T02:17:12;95366.75;;;21.23;100.00
8366;BME280;4220;42.502;24.188;2023-06-24T02:19:42;95343.41;;;21.09;100.00
8366;BME280;4220;42.502;24.188;2023-06-24T02:22:10;95371.91;;;21.20;100.00
8366;BME280;4220;42.502;24.188;2023-06-24T02:24:38;95381.63;;;21.16;100.00
8366;BME280;4220;42.502;24.188;2023-06-24T02:27:07;95379.78;;;21.11;100.00
8366;BME280;4220;42.502;24.188;2023-06-24T02:29:36;95362.59;;;20.97;100.00
8366;BME280;4220;42.502;24.188;2023-06-24T02:32:04;95357.88;;;20.74;100.00
8366;BME280;4220;42.502;24.188;2023-06-24T02:34:31;95383.47;;;20.76;100.00
8366;BME280;4220;42.502;24.188;2023-06-24T02:36:59;95384.03;;;20.73;100.00
8366;BME280;4220;42.502;24.188;2023-06-24T02:39:26;95375.63;;;20.80;100.00
8366;BME280;4220;42.502;24.188;2023-06-24T02:41:53;95374.50;;;20.86;100.00
8366;BME280;4220;42.502;24.188;2023-06-24T02:44:20;95352.41;;;20.84;100.00
8366;BME280;4220;42.502;24.188;2023-06-24T02:46:47;95363.97;;;20.95;100.00
8366;BME280;4220;42.502;24.188;2023-06-24T02:49:16;95363.44;;;20.93;100.00
8366;BME280;4220;42.502;24.188;2023-06-24T02:51:44;95372.88;;;20.90;100.00
8366;BME280;4220;42.502;24.188;2023-06-24T02:54:13;95366.94;;;20.93;100.00
8366;BME280;4220;42.502;24.188;2023-06-24T02:56:41;95350.56;;;20.79;100.00
8366;BME280;4220;42.502;24.188;2023-06-24T02:59:10;95376.16;;;20.82;100.00
8366;BME280;4220;42.502;24.188;2023-06-24T03:01:38;95371.63;;;20.72;100.00
8366;BME280;4220;42.502;24.188;2023-06-24T03:04:05;95372.44;;;20.73;100.00
8366;BME280;4220;42.502;24.188;2023-06-24T03:06:32;95363.25;;;20.74;100.00
8366;BME280;4220;42.502;24.188;2023-06-24T03:09:02;95368.13;;;20.72;100.00
8366;BME280;4220;42.502;24.188;2023-06-24T03:11:30;95328.94;;;20.46;100.00
8366;BME280;4220;42.502;24.188;2023-06-24T03:13:59;95368.16;;;20.67;100.00
8366;BME280;4220;42.502;24.188;2023-06-24T03:16:26;95352.41;;;20.30;100.00
8366;BME280;4220;42.502;24.188;2023-06-24T03:18:53;95356.22;;;20.19;100.00
8366;BME280;4220;42.502;24.188;2023-06-24T03:21:19;95377.75;;;20.29;100.00
8366;BME280;4220;42.502;24.188;2023-06-24T03:23:46;95373.72;;;20.21;100.00
8366;BME280;4220;42.502;24.188;2023-06-24T03:26:13;95374.78;;;20.20;100.00
8366;BME280;4220;42.502;24.188;2023-06-24T03:28:41;95372.91;;;20.31;100.00
8366;BME280;4220;42.502;24.188;2023-06-24T03:31:08;95393.31;;;20.42;100.00
8366;BME280;4220;42.502;24.188;2023-06-24T03:33:35;95384.47;;;20.37;100.00
8366;BME280;4220;42.502;24.188;2023-06-24T03:36:02;95400.66;;;20.11;100.00
8366;BME280;4220;42.502;24.188;2023-06-24T03:38:29;95403.59;;;20.15;100.00
8366;BME280;4220;42.502;24.188;2023-06-24T03:40:56;95355.47;;;19.98;100.00
8366;BME280;4220;42.502;24.188;2023-06-24T03:43:23;95393.06;;;20.39;100.00
8366;BME280;4220;42.502;24.188;2023-06-24T03:45:51;95398.97;;;20.46;100.00
8366;BME280;4220;42.502;24.188;2023-06-24T03:48:18;95410.25;;;20.53;100.00
8366;BME280;4220;42.502;24.188;2023-06-24T03:50:45;95397.59;;;20.53;100.00
8366;BME280;4220;42.502;24.188;2023-06-24T03:53:12;95398.31;;;20.69;100.00
8366;BME280;4220;42.502;24.188;2023-06-24T03:55:39;95391.81;;;20.80;100.00
8366;BME280;4220;42.502;24.188;2023-06-24T03:58:06;95418.72;;;20.90;100.00
8366;BME280;4220;42.502;24.188;2023-06-24T04:00:33;95405.75;;;20.97;100.00
8366;BME280;4220;42.502;24.188;2023-06-24T04:03:03;95422.38;;;21.14;100.00
8366;BME280;4220;42.502;24.188;2023-06-24T04:05:29;95360.13;;;20.57;100.00
8366;BME280;4220;42.502;24.188;2023-06-24T04:07:56;95424.63;;;20.92;100.00
8366;BME280;4220;42.502;24.188;2023-06-24T04:10:23;95423.81;;;20.92;100.00
8366;BME280;4220;42.502;24.188;2023-06-24T04:12:50;95418.09;;;21.08;100.00
8366;BME280;4220;42.502;24.188;2023-06-24T04:15:17;95412.91;;;21.22;100.00
8366;BME280;4220;42.502;24.188;2023-06-24T04:17:44;95419.53;;;21.39;100.00
8366;BME280;4220;42.502;24.188;2023-06-24T04:20:12;95410.81;;;21.47;100.00
8366;BME280;4220;42.502;24.188;2023-06-24T04:22:40;95420.72;;;21.62;100.00
8366;BME280;4220;42.502;24.188;2023-06-24T04:25:08;95419.06;;;21.66;100.00
8366;BME280;4220;42.502;24.188;2023-06-24T04:27:35;95425.00;;;21.63;100.00
8366;BME280;4220;42.502;24.188;2023-06-24T04:30:03;95415.91;;;21.54;100.00
8366;BME280;4220;42.502;24.188;2023-06-24T04:32:30;95427.94;;;21.72;100.00
8366;BME280;4220;42.502;24.188;2023-06-24T04:34:58;95403.41;;;21.63;100.00
8366;BME280;4220;42.502;24.188;2023-06-24T04:37:26;95431.00;;;21.94;100.00
8366;BME280;4220;42.502;24.188;2023-06-24T04:39:53;95436.88;;;22.01;100.00
8366;BME280;4220;42.502;24.188;2023-06-24T04:42:20;95421.13;;;21.79;100.00
8366;BME280;4220;42.502;24.188;2023-06-24T04:44:48;95428.00;;;21.95;100.00
8366;BME280;4220;42.502;24.188;2023-06-24T04:47:16;95386.22;;;21.88;100.00
8366;BME280;4220;42.502;24.188;2023-06-24T04:49:43;95434.50;;;22.23;100.00
8366;BME280;4220;42.502;24.188;2023-06-24T04:52:11;95430.69;;;22.24;100.00
8366;BME280;4220;42.502;24.188;2023-06-24T04:54:39;95441.09;;;22.41;100.00
8366;BME280;4220;42.502;24.188;2023-06-24T04:57:08;95442.56;;;22.52;100.00
8366;BME280;4220;42.502;24.188;2023-06-24T04:59:36;95449.72;;;22.66;100.00
8366;BME280;4220;42.502;24.188;2023-06-24T05:02:03;95447.22;;;22.75;100.00
8366;BME280;4220;42.502;24.188;2023-06-24T05:04:30;95445.69;;;22.88;100.00
8366;BME280;4220;42.502;24.188;2023-06-24T05:06:57;95434.78;;;22.93;100.00
8366;BME280;4220;42.502;24.188;2023-06-24T05:09:24;95447.63;;;23.06;100.00
8366;BME280;4220;42.502;24.188;2023-06-24T05:11:52;95445.56;;;22.98;100.00
8366;BME280;4220;42.502;24.188;2023-06-24T05:14:19;95434.91;;;23.06;100.00
8366;BME280;4220;42.502;24.188;2023-06-24T05:16:46;95436.44;;;23.12;100.00
8366;BME280;4220;42.502;24.188;2023-06-24T05:19:12;95450.63;;;23.23;100.00
8366;BME280;4220;42.502;24.188;2023-06-24T05:21:39;95431.00;;;23.12;100.00
8366;BME280;4220;42.502;24.188;2023-06-24T05:24:07;95437.59;;;23.25;100.00
8366;BME280;4220;42.502;24.188;2023-06-24T05:26:33;95446.44;;;23.35;100.00
8366;BME280;4220;42.502;24.188;2023-06-24T05:29:02;95407.19;;;23.14;100.00
8366;BME280;4220;42.502;24.188;2023-06-24T05:31:28;95438.81;;;23.56;100.00
8366;BME280;4220;42.502;24.188;2023-06-24T05:33:55;95430.47;;;23.53;99.84
8366;BME280;4220;42.502;24.188;2023-06-24T05:36:22;95432.59;;;23.56;98.38
8366;BME280;4220;42.502;24.188;2023-06-24T05:38:49;95429.34;;;23.72;95.87
8366;BME280;4220;42.502;24.188;2023-06-24T05:41:16;95425.09;;;23.66;95.56
8366;BME280;4220;42.502;24.188;2023-06-24T05:43:43;95412.41;;;23.48;96.26
8366;BME280;4220;42.502;24.188;2023-06-24T05:46:11;95436.66;;;23.72;94.85
8366;BME280;4220;42.502;24.188;2023-06-24T05:48:38;95440.09;;;23.77;94.94
8366;BME280;4220;42.502;24.188;2023-06-24T05:51:05;95439.53;;;23.80;95.86
8366;BME280;4220;42.502;24.188;2023-06-24T05:53:32;95440.44;;;23.89;95.93
8366;BME280;4220;42.502;24.188;2023-06-24T05:55:58;95442.09;;;24.04;94.81
8366;BME280;4220;42.502;24.188;2023-06-24T05:58:25;95432.56;;;24.06;91.22
8366;BME280;4220;42.502;24.188;2023-06-24T06:00:52;95447.78;;;24.08;91.28
8366;BME280;4220;42.502;24.188;2023-06-24T06:03:22;95441.38;;;23.98;89.66
8366;BME280;4220;42.502;24.188;2023-06-24T06:05:49;95431.06;;;24.00;89.09
8366;BME280;4220;42.502;24.188;2023-06-24T06:08:15;95441.88;;;24.19;87.93
8366;BME280;4220;42.502;24.188;2023-06-24T06:10:42;95447.38;;;24.14;87.92
8366;BME280;4220;42.502;24.188;2023-06-24T06:13:09;95435.28;;;24.06;89.33
8366;BME280;4220;42.502;24.188;2023-06-24T06:15:36;95437.75;;;24.22;88.09
8366;BME280;4220;42.502;24.188;2023-06-24T06:18:03;95435.78;;;24.41;85.82
8366;BME280;4220;42.502;24.188;2023-06-24T06:20:31;95441.91;;;24.60;85.69
8366;BME280;4220;42.502;24.188;2023-06-24T06:22:58;95435.78;;;24.68;84.25
8366;BME280;4220;42.502;24.188;2023-06-24T06:25:25;95431.28;;;24.77;83.92
8366;BME280;4220;42.502;24.188;2023-06-24T06:27:52;95434.22;;;24.81;83.92
8366;BME280;4220;42.502;24.188;2023-06-24T06:30:19;95436.72;;;24.91;83.82
8366;BME280;4220;42.502;24.188;2023-06-24T06:32:46;95409.38;;;24.87;84.09
8366;BME280;4220;42.502;24.188;2023-06-24T06:35:12;95435.38;;;25.15;82.79
8366;BME280;4220;42.502;24.188;2023-06-24T06:37:41;95435.94;;;25.26;81.45
8366;BME280;4220;42.502;24.188;2023-06-24T06:40:08;95429.75;;;25.25;82.35
8366;BME280;4220;42.502;24.188;2023-06-24T06:42:35;95398.44;;;24.92;82.34
8366;BME280;4220;42.502;24.188;2023-06-24T06:45:03;95412.69;;;24.98;83.86
8366;BME280;4220;42.502;24.188;2023-06-24T06:47:29;95421.81;;;25.15;83.42
8366;BME280;4220;42.502;24.188;2023-06-24T06:49:56;95419.75;;;25.34;82.19
8366;BME280;4220;42.502;24.188;2023-06-24T06:52:23;95419.75;;;25.34;81.96
8366;BME280;4220;42.502;24.188;2023-06-24T06:54:51;95437.16;;;25.47;81.14
8366;BME280;4220;42.502;24.188;2023-06-24T06:57:18;95423.84;;;25.59;80.49
8366;BME280;4220;42.502;24.188;2023-06-24T06:59:45;95416.50;;;25.60;81.20
8366;BME280;4220;42.502;24.188;2023-06-24T07:02:12;95427.09;;;25.48;81.19
8366;BME280;4220;42.502;24.188;2023-06-24T07:04:39;95424.88;;;25.50;81.15
8366;BME280;4220;42.502;24.188;2023-06-24T07:07:06;95433.50;;;25.52;81.00
8366;BME280;4220;42.502;24.188;2023-06-24T07:09:32;95431.72;;;25.47;81.20
8366;BME280;4220;42.502;24.188;2023-06-24T07:12:01;95338.72;;;24.92;82.05
8366;BME280;4220;42.502;24.188;2023-06-24T07:14:27;95439.69;;;25.66;81.58
8366;BME280;4220;42.502;24.188;2023-06-24T07:16:54;95406.13;;;25.62;81.72
8366;BME280;4220;42.502;24.188;2023-06-24T07:19:21;95424.91;;;25.72;81.66
8366;BME280;4220;42.502;24.188;2023-06-24T07:21:48;95419.22;;;25.82;81.29
8366;BME280;4220;42.502;24.188;2023-06-24T07:24:15;95432.44;;;25.97;80.62
8366;BME280;4220;42.502;24.188;2023-06-24T07:26:42;95407.47;;;25.73;81.09
8366;BME280;4220;42.502;24.188;2023-06-24T07:29:10;95434.03;;;25.98;81.10
8366;BME280;4220;42.502;24.188;2023-06-24T07:31:37;95427.38;;;26.04;80.18
8366;BME280;4220;42.502;24.188;2023-06-24T07:34:04;95414.25;;;26.06;80.86
8366;BME280;4220;42.502;24.188;2023-06-24T07:36:31;95428.78;;;26.24;79.74
8366;BME280;4220;42.502;24.188;2023-06-24T07:38:58;95435.00;;;26.24;79.34
8366;BME280;4220;42.502;24.188;2023-06-24T07:41:24;95422.72;;;26.27;79.63
8366;BME280;4220;42.502;24.188;2023-06-24T07:43:51;95426.81;;;26.46;79.11
8366;BME280;4220;42.502;24.188;2023-06-24T07:46:20;95432.31;;;26.55;79.00
8366;BME280;4220;42.502;24.188;2023-06-24T07:48:46;95391.88;;;26.31;79.40
8366;BME280;4220;42.502;24.188;2023-06-24T07:51:13;95393.34;;;26.37;80.05
8366;BME280;4220;42.502;24.188;2023-06-24T07:53:40;95414.75;;;26.70;78.90
8366;BME280;4220;42.502;24.188;2023-06-24T07:56:07;95424.47;;;26.93;78.66
8366;BME280;4220;42.502;24.188;2023-06-24T07:58:34;95417.41;;;27.00;77.92
8366;BME280;4220;42.502;24.188;2023-06-24T08:01:03;95417.94;;;27.11;76.88
8366;BME280;4220;42.502;24.188;2023-06-24T08:03:31;95425.31;;;27.27;78.44
8366;BME280;4220;42.502;24.188;2023-06-24T08:05:58;95426.34;;;27.40;77.54
8366;BME280;4220;42.502;24.188;2023-06-24T08:08:25;95427.16;;;27.49;76.26
8366;BME280;4220;42.502;24.188;2023-06-24T08:10:52;95432.94;;;27.56;75.43
8366;BME280;4220;42.502;24.188;2023-06-24T08:13:19;95433.25;;;27.63;75.26
8366;BME280;4220;42.502;24.188;2023-06-24T08:15:46;95388.00;;;27.28;76.08
8366;BME280;4220;42.502;24.188;2023-06-24T08:18:12;95394.41;;;27.23;75.99
8366;BME280;4220;42.502;24.188;2023-06-24T08:20:41;95437.56;;;27.39;76.56
8366;BME280;4220;42.502;24.188;2023-06-24T08:23:08;95419.44;;;27.43;75.66
8366;BME280;4220;42.502;24.188;2023-06-24T08:25:35;95430.06;;;27.61;75.76
8366;BME280;4220;42.502;24.188;2023-06-24T08:28:02;95430.38;;;27.68;74.84
8366;BME280;4220;42.502;24.188;2023-06-24T08:30:29;95430.69;;;27.75;73.55
8366;BME280;4220;42.502;24.188;2023-06-24T08:32:56;95429.22;;;27.86;73.63
8366;BME280;4220;42.502;24.188;2023-06-24T08:35:23;95441.41;;;27.89;73.01
8366;BME280;4220;42.502;24.188;2023-06-24T08:37:51;95409.50;;;27.89;73.17
8366;BME280;4220;42.502;24.188;2023-06-24T08:40:18;95431.94;;;28.21;74.08
8366;BME280;4220;42.502;24.188;2023-06-24T08:42:45;95438.78;;;28.44;73.07
8366;BME280;4220;42.502;24.188;2023-06-24T08:45:11;95443.44;;;28.52;72.91
8366;BME280;4220;42.502;24.188;2023-06-24T08:47:40;95429.97;;;28.38;72.88
8366;BME280;4220;42.502;24.188;2023-06-24T08:50:11;95435.75;;;28.37;72.75
8366;BME280;4220;42.502;24.188;2023-06-24T08:52:38;95432.34;;;28.48;72.11
8366;BME280;4220;42.502;24.188;2023-06-24T08:55:12;95428.69;;;28.44;72.19
8366;BME280;4220;42.502;24.188;2023-06-24T08:57:40;95422.25;;;28.49;72.47
8366;BME280;4220;42.502;24.188;2023-06-24T09:00:07;95427.03;;;28.69;71.67
8366;BME280;4220;42.502;24.188;2023-06-24T09:02:36;95420.72;;;28.77;70.72
8366;BME280;4220;42.502;24.188;2023-06-24T09:05:04;95418.38;;;28.96;71.34
8366;BME280;4220;42.502;24.188;2023-06-24T09:07:31;95410.09;;;28.84;70.91
8366;BME280;4220;42.502;24.188;2023-06-24T09:09:58;95415.28;;;28.77;71.97
8366;BME280;4220;42.502;24.188;2023-06-24T09:12:27;95411.09;;;28.71;70.99
8366;BME280;4220;42.502;24.188;2023-06-24T09:14:54;95411.84;;;28.42;71.58
8366;BME280;4220;42.502;24.188;2023-06-24T09:17:21;95388.97;;;28.18;73.59
8366;BME280;4220;42.502;24.188;2023-06-24T09:19:48;95407.63;;;28.53;72.25
8366;BME280;4220;42.502;24.188;2023-06-24T09:22:15;95401.41;;;28.82;70.73
8366;BME280;4220;42.502;24.188;2023-06-24T09:24:44;95399.13;;;29.22;69.22
8366;BME280;4220;42.502;24.188;2023-06-24T09:27:12;95402.81;;;29.47;67.84
8366;BME280;4220;42.502;24.188;2023-06-24T09:29:42;95386.59;;;29.42;67.25
8366;BME280;4220;42.502;24.188;2023-06-24T09:32:10;95379.88;;;29.60;65.31
8366;BME280;4220;42.502;24.188;2023-06-24T09:34:37;95378.22;;;29.67;64.26
8366;BME280;4220;42.502;24.188;2023-06-24T09:37:04;95395.69;;;30.08;63.83
8366;BME280;4220;42.502;24.188;2023-06-24T09:39:36;95396.47;;;30.29;61.66
8366;BME280;4220;42.502;24.188;2023-06-24T09:42:05;95405.75;;;30.36;61.14
8366;BME280;4220;42.502;24.188;2023-06-24T09:44:32;95406.34;;;30.54;59.92
8366;BME280;4220;42.502;24.188;2023-06-24T09:47:01;95408.31;;;30.78;59.26
8366;BME280;4220;42.502;24.188;2023-06-24T09:49:28;95392.34;;;30.80;58.20
8366;BME280;4220;42.502;24.188;2023-06-24T09:51:56;95398.84;;;30.75;57.39
8366;BME280;4220;42.502;24.188;2023-06-24T09:54:25;95402.38;;;30.88;56.25
8366;BME280;4220;42.502;24.188;2023-06-24T09:56:53;95400.34;;;30.97;56.94
8366;BME280;4220;42.502;24.188;2023-06-24T09:59:21;95399.78;;;31.03;56.86
8366;BME280;4220;42.502;24.188;2023-06-24T10:01:52;95395.19;;;30.83;56.75
8366;BME280;4220;42.502;24.188;2023-06-24T10:04:21;95391.91;;;31.02;56.21
8366;BME280;4220;42.502;24.188;2023-06-24T10:06:48;95392.34;;;31.04;55.84
8366;BME280;4220;42.502;24.188;2023-06-24T10:09:16;95409.78;;;31.36;54.95
8366;BME280;4220;42.502;24.188;2023-06-24T10:11:45;95383.66;;;31.26;53.19
8366;BME280;4220;42.502;24.188;2023-06-24T10:14:13;95406.94;;;30.84;54.20
8366;BME280;4220;42.502;24.188;2023-06-24T10:16:41;95403.88;;;30.85;54.28
8366;BME280;4220;42.502;24.188;2023-06-24T10:19:08;95393.72;;;30.86;55.03
8366;BME280;4220;42.502;24.188;2023-06-24T10:21:46;95404.25;;;31.08;54.85
8366;BME280;4220;42.502;24.188;2023-06-24T10:24:27;95392.78;;;31.18;53.92
8366;BME280;4220;42.502;24.188;2023-06-24T10:26:55;95401.56;;;31.36;53.43
8366;BME280;4220;42.502;24.188;2023-06-24T10:29:30;95398.34;;;31.58;53.46
8366;BME280;4220;42.502;24.188;2023-06-24T10:32:02;95374.63;;;31.78;52.13
8366;BME280;4220;42.502;24.188;2023-06-24T10:34:38;95396.81;;;31.73;51.98
8366;BME280;4220;42.502;24.188;2023-06-24T10:37:10;95386.34;;;32.02;51.97
8366;BME280;4220;42.502;24.188;2023-06-24T10:39:38;95309.06;;;31.73;50.88
8366;BME280;4220;42.502;24.188;2023-06-24T10:42:31;95380.72;;;32.26;50.33
8366;BME280;4220;42.502;24.188;2023-06-24T10:45:00;95359.84;;;31.94;50.88
8366;BME280;4220;42.502;24.188;2023-06-24T10:47:27;95358.56;;;32.19;50.61
8366;BME280;4220;42.502;24.188;2023-06-24T10:49:55;95347.44;;;32.44;50.67
8366;BME280;4220;42.502;24.188;2023-06-24T10:52:23;95350.66;;;32.77;49.73
8366;BME280;4220;42.502;24.188;2023-06-24T10:54:51;95343.00;;;33.02;48.46
8366;BME280;4220;42.502;24.188;2023-06-24T10:57:22;95335.81;;;33.13;48.68
8366;BME280;4220;42.502;24.188;2023-06-24T10:59:50;95332.63;;;33.11;49.00
8366;BME280;4220;42.502;24.188;2023-06-24T11:02:19;95326.88;;;33.35;48.13
8366;BME280;4220;42.502;24.188;2023-06-24T11:04:46;95301.00;;;33.55;46.96
8366;BME280;4220;42.502;24.188;2023-06-24T11:07:14;95316.28;;;33.91;47.56
8366;BME280;4220;42.502;24.188;2023-06-24T11:09:42;95306.50;;;34.12;46.87
8366;BME280;4220;42.502;24.188;2023-06-24T11:12:10;95318.59;;;34.31;46.64
8366;BME280;4220;42.502;24.188;2023-06-24T11:14:38;95294.19;;;33.87;45.52
8366;BME280;4220;42.502;24.188;2023-06-24T11:17:05;95305.63;;;33.89;47.48
8366;BME280;4220;42.502;24.188;2023-06-24T11:19:32;95304.75;;;34.04;46.31
8366;BME280;4220;42.502;24.188;2023-06-24T11:22:01;95312.13;;;34.19;45.82
8366;BME280;4220;42.502;24.188;2023-06-24T11:24:28;95293.19;;;34.18;44.88
8366;BME280;4220;42.502;24.188;2023-06-24T11:26:57;95306.94;;;34.37;44.82
8366;BME280;4220;42.502;24.188;2023-06-24T11:29:24;95290.56;;;34.48;44.48
8366;BME280;4220;42.502;24.188;2023-06-24T11:31:52;95304.16;;;34.82;44.32
8366;BME280;4220;42.502;24.188;2023-06-24T11:34:18;95299.44;;;35.09;44.53
8366;BME280;4220;42.502;24.188;2023-06-24T11:36:45;95310.88;;;35.37;42.31
8366;BME280;4220;42.502;24.188;2023-06-24T11:39:22;95307.81;;;35.42;42.44
8366;BME280;4220;42.502;24.188;2023-06-24T11:41:49;95306.03;;;35.57;42.52
8366;BME280;4220;42.502;24.188;2023-06-24T11:44:21;95298.97;;;35.93;41.65
8366;BME280;4220;42.502;24.188;2023-06-24T11:46:50;95289.69;;;36.08;40.67
8366;BME280;4220;42.502;24.188;2023-06-24T11:49:18;95290.25;;;36.24;40.57
8366;BME280;4220;42.502;24.188;2023-06-24T11:51:46;95292.84;;;36.06;40.38
8366;BME280;4220;42.502;24.188;2023-06-24T11:54:20;95286.94;;;36.08;41.02
8366;BME280;4220;42.502;24.188;2023-06-24T11:56:50;95287.28;;;36.03;40.06
8366;BME280;4220;42.502;24.188;2023-06-24T11:59:19;95279.53;;;35.82;40.56
8366;BME280;4220;42.502;24.188;2023-06-24T12:01:53;95265.69;;;35.79;39.88
8366;BME280;4220;42.502;24.188;2023-06-24T12:04:21;95266.09;;;35.47;40.46
8366;BME280;4220;42.502;24.188;2023-06-24T12:06:48;95260.56;;;35.47;41.51
8366;BME280;4220;42.502;24.188;2023-06-24T12:09:15;95256.78;;;35.29;41.86
8366;BME280;4220;42.502;24.188;2023-06-24T12:11:42;95260.38;;;35.33;41.27
8366;BME280;4220;42.502;24.188;2023-06-24T12:14:09;95257.75;;;35.44;41.87
8366;BME280;4220;42.502;24.188;2023-06-24T12:16:36;95251.09;;;35.48;40.91
8366;BME280;4220;42.502;24.188;2023-06-24T12:19:04;95251.41;;;35.70;41.01
8366;BME280;4220;42.502;24.188;2023-06-24T12:21:31;95244.44;;;35.83;40.33
8366;BME280;4220;42.502;24.188;2023-06-24T12:23:58;95243.69;;;35.86;40.08
8366;BME280;4220;42.502;24.188;2023-06-24T12:26:25;95222.19;;;35.65;40.67
8366;BME280;4220;42.502;24.188;2023-06-24T12:28:54;95233.72;;;35.78;40.83
8366;BME280;4220;42.502;24.188;2023-06-24T12:31:21;95234.78;;;35.99;40.65
8366;BME280;4220;42.502;24.188;2023-06-24T12:33:47;95231.94;;;35.96;40.09
8366;BME280;4220;42.502;24.188;2023-06-24T12:36:16;95236.13;;;36.16;39.84
8366;BME280;4220;42.502;24.188;2023-06-24T12:38:43;95229.44;;;36.21;39.38
8366;BME280;4220;42.502;24.188;2023-06-24T12:41:09;95223.47;;;36.59;39.41
8366;BME280;4220;42.502;24.188;2023-06-24T12:43:36;95223.22;;;36.78;39.37
8366;BME280;4220;42.502;24.188;2023-06-24T12:46:03;95224.91;;;36.93;39.11
8366;BME280;4220;42.502;24.188;2023-06-24T12:48:30;95228.03;;;36.92;39.30
8366;BME280;4220;42.502;24.188;2023-06-24T12:50:57;95230.22;;;36.65;39.97
8366;BME280;4220;42.502;24.188;2023-06-24T12:53:25;95226.34;;;36.77;39.36
8366;BME280;4220;42.502;24.188;2023-06-24T12:55:52;95217.81;;;36.96;39.64
8366;BME280;4220;42.502;24.188;2023-06-24T12:58:22;95226.25;;;37.24;38.96
8366;BME280;4220;42.502;24.188;2023-06-24T13:00:49;95225.66;;;37.66;38.46
8366;BME280;4220;42.502;24.188;2023-06-24T13:03:16;95224.88;;;37.79;39.12
8366;BME280;4220;42.502;24.188;2023-06-24T13:05:43;95230.13;;;37.99;38.76
8366;BME280;4220;42.502;24.188;2023-06-24T13:08:10;95217.44;;;38.05;38.64
8366;BME280;4220;42.502;24.188;2023-06-24T13:10:38;95207.94;;;38.02;38.57
8366;BME280;4220;42.502;24.188;2023-06-24T13:13:05;95178.56;;;37.62;39.22